sensor_id;sensor_type;location;lat;lon;timestamp;P1;durP1;ratioP1;P2;durP2;ratioP2
74170;SDS011;62526;50.948;6.590;2024-02-16T00:01:50;2.50;;;2.00;;
74170;SDS011;62526;50.948;6.590;2024-02-16T00:04:18;4.15;;;2.00;;
74170;SDS011;62526;50.948;6.590;2024-02-16T00:06:45;3.15;;;2.03;;
74170;SDS011;62526;50.948;6.590;2024-02-16T00:09:12;2.53;;;1.95;;
74170;SDS011;62526;50.948;6.590;2024-02-16T00:11:39;2.62;;;2.20;;
74170;SDS011;62526;50.948;6.590;2024-02-16T00:14:06;2.90;;;2.33;;
74170;SDS011;62526;50.948;6.590;2024-02-16T00:16:33;5.95;;;2.40;;
74170;SDS011;62526;50.948;6.590;2024-02-16T00:18:59;3.28;;;2.42;;
74170;SDS011;62526;50.948;6.590;2024-02-16T00:21:27;3.30;;;2.25;;
74170;SDS011;62526;50.948;6.590;2024-02-16T00:23:54;3.12;;;2.37;;
74170;SDS011;62526;50.948;6.590;2024-02-16T00:26:21;2.97;;;1.95;;
74170;SDS011;62526;50.948;6.590;2024-02-16T00:28:48;6.12;;;2.05;;
74170;SDS011;62526;50.948;6.590;2024-02-16T00:31:15;3.20;;;2.35;;
74170;SDS011;62526;50.948;6.590;2024-02-16T00:33:43;2.92;;;2.08;;
74170;SDS011;62526;50.948;6.590;2024-02-16T00:36:10;5.22;;;1.92;;
74170;SDS011;62526;50.948;6.590;2024-02-16T00:38:36;2.22;;;2.03;;
74170;SDS011;62526;50.948;6.590;2024-02-16T00:41:04;7.68;;;2.35;;
74170;SDS011;62526;50.948;6.590;2024-02-16T00:43:31;3.53;;;2.83;;
74170;SDS011;62526;50.948;6.590;2024-02-16T00:45:59;4.28;;;2.00;;
74170;SDS011;62526;50.948;6.590;2024-02-16T00:48:25;6.43;;;2.20;;
74170;SDS011;62526;50.948;6.590;2024-02-16T00:50:52;4.43;;;2.12;;
74170;SDS011;62526;50.948;6.590;2024-02-16T00:53:19;5.18;;;2.58;;
74170;SDS011;62526;50.948;6.590;2024-02-16T00:55:46;4.25;;;2.45;;
74170;SDS011;62526;50.948;6.590;2024-02-16T00:58:13;3.67;;;2.20;;
74170;SDS011;62526;50.948;6.590;2024-02-16T01:00:39;3.50;;;2.20;;
74170;SDS011;62526;50.948;6.590;2024-02-16T01:03:07;6.00;;;2.15;;
74170;SDS011;62526;50.948;6.590;2024-02-16T01:05:34;3.97;;;2.37;;
74170;SDS011;62526;50.948;6.590;2024-02-16T01:08:00;5.60;;;2.62;;
74170;SDS011;62526;50.948;6.590;2024-02-16T01:10:28;3.62;;;2.12;;
74170;SDS011;62526;50.948;6.590;2024-02-16T01:12:54;6.35;;;2.45;;
74170;SDS011;62526;50.948;6.590;2024-02-16T01:15:22;4.47;;;2.62;;
74170;SDS011;62526;50.948;6.590;2024-02-16T01:17:49;3.12;;;2.17;;
74170;SDS011;62526;50.948;6.590;2024-02-16T01:20:15;3.87;;;2.35;;
74170;SDS011;62526;50.948;6.590;2024-02-16T01:22:43;3.42;;;2.28;;
74170;SDS011;62526;50.948;6.590;2024-02-16T01:25:09;4.75;;;2.35;;
74170;SDS011;62526;50.948;6.590;2024-02-16T01:27:37;2.78;;;2.28;;
74170;SDS011;62526;50.948;6.590;2024-02-16T01:30:03;4.70;;;2.30;;
74170;SDS011;62526;50.948;6.590;2024-02-16T01:32:30;4.70;;;2.25;;
74170;SDS011;62526;50.948;6.590;2024-02-16T01:34:58;4.22;;;2.20;;
74170;SDS011;62526;50.948;6.590;2024-02-16T01:37:25;2.83;;;2.10;;
74170;SDS011;62526;50.948;6.590;2024-02-16T01:39:52;8.35;;;2.40;;
74170;SDS011;62526;50.948;6.590;2024-02-16T01:42:19;4.05;;;2.40;;
74170;SDS011;62526;50.948;6.590;2024-02-16T01:44:46;3.72;;;2.42;;
74170;SDS011;62526;50.948;6.590;2024-02-16T01:47:12;2.95;;;2.20;;
74170;SDS011;62526;50.948;6.590;2024-02-16T01:49:39;3.72;;;2.40;;
74170;SDS011;62526;50.948;6.590;2024-02-16T01:52:06;3.90;;;2.37;;
74170;SDS011;62526;50.948;6.590;2024-02-16T01:54:33;5.28;;;2.90;;
74170;SDS011;62526;50.948;6.590;2024-02-16T01:57:00;3.58;;;2.20;;
74170;SDS011;62526;50.948;6.590;2024-02-16T01:59:27;3.67;;;2.10;;
74170;SDS011;62526;50.948;6.590;2024-02-16T02:01:54;5.15;;;2.15;;
74170;SDS011;62526;50.948;6.590;2024-02-16T02:04:21;3.90;;;2.00;;
74170;SDS011;62526;50.948;6.590;2024-02-16T02:06:47;5.05;;;3.12;;
74170;SDS011;62526;50.948;6.590;2024-02-16T02:09:14;4.57;;;2.50;;
74170;SDS011;62526;50.948;6.590;2024-02-16T02:11:42;3.10;;;2.60;;
74170;SDS011;62526;50.948;6.590;2024-02-16T02:14:08;5.60;;;2.22;;
74170;SDS011;62526;50.948;6.590;2024-02-16T02:16:36;4.75;;;2.62;;
74170;SDS011;62526;50.948;6.590;2024-02-16T02:19:02;3.05;;;2.30;;
74170;SDS011;62526;50.948;6.590;2024-02-16T02:21:29;4.20;;;2.20;;
74170;SDS011;62526;50.948;6.590;2024-02-16T02:23:57;7.10;;;2.40;;
74170;SDS011;62526;50.948;6.590;2024-02-16T02:26:24;3.08;;;2.37;;
74170;SDS011;62526;50.948;6.590;2024-02-16T02:28:51;4.40;;;2.28;;
74170;SDS011;62526;50.948;6.590;2024-02-16T02:31:17;4.43;;;2.25;;
74170;SDS011;62526;50.948;6.590;2024-02-16T02:33:45;4.35;;;2.35;;
74170;SDS011;62526;50.948;6.590;2024-02-16T02:36:11;6.45;;;3.05;;
74170;SDS011;62526;50.948;6.590;2024-02-16T02:38:39;6.00;;;2.87;;
74170;SDS011;62526;50.948;6.590;2024-02-16T02:41:06;5.22;;;2.25;;
74170;SDS011;62526;50.948;6.590;2024-02-16T02:43:33;5.30;;;2.47;;
74170;SDS011;62526;50.948;6.590;2024-02-16T02:46:00;3.42;;;2.05;;
74170;SDS011;62526;50.948;6.590;2024-02-16T02:48:27;6.18;;;2.67;;
74170;SDS011;62526;50.948;6.590;2024-02-16T02:50:54;2.47;;;2.28;;
74170;SDS011;62526;50.948;6.590;2024-02-16T02:53:21;4.60;;;2.33;;
74170;SDS011;62526;50.948;6.590;2024-02-16T02:55:48;5.12;;;2.40;;
74170;SDS011;62526;50.948;6.590;2024-02-16T02:58:15;5.40;;;2.97;;
74170;SDS011;62526;50.948;6.590;2024-02-16T03:00:42;5.30;;;2.67;;
74170;SDS011;62526;50.948;6.590;2024-02-16T03:03:09;4.05;;;2.20;;
74170;SDS011;62526;50.948;6.590;2024-02-16T03:05:36;4.97;;;2.45;;
74170;SDS011;62526;50.948;6.590;2024-02-16T03:08:03;4.90;;;2.35;;
74170;SDS011;62526;50.948;6.590;2024-02-16T03:10:30;4.45;;;2.17;;
74170;SDS011;62526;50.948;6.590;2024-02-16T03:12:56;8.43;;;2.92;;
74170;SDS011;62526;50.948;6.590;2024-02-16T03:15:24;4.95;;;2.28;;
74170;SDS011;62526;50.948;6.590;2024-02-16T03:17:50;6.28;;;2.62;;
74170;SDS011;62526;50.948;6.590;2024-02-16T03:20:18;4.00;;;2.42;;
74170;SDS011;62526;50.948;6.590;2024-02-16T03:22:44;6.97;;;2.75;;
74170;SDS011;62526;50.948;6.590;2024-02-16T03:25:11;6.37;;;2.40;;
74170;SDS011;62526;50.948;6.590;2024-02-16T03:27:39;4.65;;;2.40;;
74170;SDS011;62526;50.948;6.590;2024-02-16T03:30:07;5.32;;;2.60;;
74170;SDS011;62526;50.948;6.590;2024-02-16T03:32:34;3.72;;;2.10;;
74170;SDS011;62526;50.948;6.590;2024-02-16T03:35:01;3.42;;;2.35;;
74170;SDS011;62526;50.948;6.590;2024-02-16T03:37:28;3.50;;;2.35;;
74170;SDS011;62526;50.948;6.590;2024-02-16T03:39:55;4.80;;;2.70;;
74170;SDS011;62526;50.948;6.590;2024-02-16T03:42:22;5.85;;;2.30;;
74170;SDS011;62526;50.948;6.590;2024-02-16T03:44:48;6.85;;;2.78;;
74170;SDS011;62526;50.948;6.590;2024-02-16T03:47:16;5.65;;;2.65;;
74170;SDS011;62526;50.948;6.590;2024-02-16T03:49:42;2.75;;;2.47;;
74170;SDS011;62526;50.948;6.590;2024-02-16T03:52:09;5.45;;;2.53;;
74170;SDS011;62526;50.948;6.590;2024-02-16T03:54:36;4.22;;;2.10;;
74170;SDS011;62526;50.948;6.590;2024-02-16T03:57:03;8.57;;;3.20;;
74170;SDS011;62526;50.948;6.590;2024-02-16T03:59:31;6.82;;;2.75;;
74170;SDS011;62526;50.948;6.590;2024-02-16T04:01:58;3.20;;;2.50;;
74170;SDS011;62526;50.948;6.590;2024-02-16T04:04:25;8.13;;;2.40;;
74170;SDS011;62526;50.948;6.590;2024-02-16T04:06:52;6.45;;;2.60;;
74170;SDS011;62526;50.948;6.590;2024-02-16T04:09:19;3.67;;;2.55;;
74170;SDS011;62526;50.948;6.590;2024-02-16T04:11:46;3.70;;;2.45;;
74170;SDS011;62526;50.948;6.590;2024-02-16T04:14:13;7.18;;;2.92;;
74170;SDS011;62526;50.948;6.590;2024-02-16T04:16:42;3.58;;;2.35;;
74170;SDS011;62526;50.948;6.590;2024-02-16T04:19:07;8.07;;;2.60;;
74170;SDS011;62526;50.948;6.590;2024-02-16T04:21:34;4.82;;;2.45;;
74170;SDS011;62526;50.948;6.590;2024-02-16T04:24:00;6.00;;;2.60;;
74170;SDS011;62526;50.948;6.590;2024-02-16T04:26:28;4.10;;;2.30;;
74170;SDS011;62526;50.948;6.590;2024-02-16T04:28:55;11.38;;;4.03;;
74170;SDS011;62526;50.948;6.590;2024-02-16T04:31:22;4.22;;;2.22;;
74170;SDS011;62526;50.948;6.590;2024-02-16T04:33:49;6.00;;;2.12;;
74170;SDS011;62526;50.948;6.590;2024-02-16T04:36:16;3.83;;;2.40;;
74170;SDS011;62526;50.948;6.590;2024-02-16T04:38:47;4.70;;;2.80;;
74170;SDS011;62526;50.948;6.590;2024-02-16T04:41:14;9.13;;;3.00;;
74170;SDS011;62526;50.948;6.590;2024-02-16T04:43:40;4.30;;;2.17;;
74170;SDS011;62526;50.948;6.590;2024-02-16T04:46:13;7.12;;;2.42;;
74170;SDS011;62526;50.948;6.590;2024-02-16T04:48:34;5.03;;;2.37;;
74170;SDS011;62526;50.948;6.590;2024-02-16T04:51:01;3.15;;;2.50;;
74170;SDS011;62526;50.948;6.590;2024-02-16T04:53:27;2.85;;;2.30;;
74170;SDS011;62526;50.948;6.590;2024-02-16T04:55:55;7.37;;;2.62;;
74170;SDS011;62526;50.948;6.590;2024-02-16T04:58:21;4.95;;;2.80;;
74170;SDS011;62526;50.948;6.590;2024-02-16T05:00:48;3.22;;;2.25;;
74170;SDS011;62526;50.948;6.590;2024-02-16T05:03:16;4.10;;;2.55;;
74170;SDS011;62526;50.948;6.590;2024-02-16T05:05:42;6.35;;;3.03;;
74170;SDS011;62526;50.948;6.590;2024-02-16T05:08:10;3.65;;;2.47;;
74170;SDS011;62526;50.948;6.590;2024-02-16T05:10:37;3.10;;;2.72;;
74170;SDS011;62526;50.948;6.590;2024-02-16T05:13:04;7.30;;;2.75;;
74170;SDS011;62526;50.948;6.590;2024-02-16T05:15:31;3.12;;;2.42;;
74170;SDS011;62526;50.948;6.590;2024-02-16T05:17:58;5.62;;;2.67;;
74170;SDS011;62526;50.948;6.590;2024-02-16T05:20:25;4.85;;;2.72;;
74170;SDS011;62526;50.948;6.590;2024-02-16T05:22:52;4.72;;;2.65;;
74170;SDS011;62526;50.948;6.590;2024-02-16T05:25:19;5.22;;;2.28;;
74170;SDS011;62526;50.948;6.590;2024-02-16T05:27:46;4.47;;;2.70;;
74170;SDS011;62526;50.948;6.590;2024-02-16T05:30:14;4.72;;;2.40;;
74170;SDS011;62526;50.948;6.590;2024-02-16T05:32:41;10.73;;;2.87;;
74170;SDS011;62526;50.948;6.590;2024-02-16T05:35:08;4.07;;;2.47;;
74170;SDS011;62526;50.948;6.590;2024-02-16T05:37:38;4.75;;;2.80;;
74170;SDS011;62526;50.948;6.590;2024-02-16T05:40:07;2.70;;;2.40;;
74170;SDS011;62526;50.948;6.590;2024-02-16T05:42:34;4.18;;;2.33;;
74170;SDS011;62526;50.948;6.590;2024-02-16T05:45:02;5.85;;;2.25;;
74170;SDS011;62526;50.948;6.590;2024-02-16T05:47:29;5.03;;;2.25;;
74170;SDS011;62526;50.948;6.590;2024-02-16T05:49:56;4.12;;;2.28;;
74170;SDS011;62526;50.948;6.590;2024-02-16T05:52:23;7.43;;;2.60;;
74170;SDS011;62526;50.948;6.590;2024-02-16T05:54:50;7.50;;;2.40;;
74170;SDS011;62526;50.948;6.590;2024-02-16T05:57:17;6.75;;;2.72;;
74170;SDS011;62526;50.948;6.590;2024-02-16T05:59:44;6.28;;;2.70;;
74170;SDS011;62526;50.948;6.590;2024-02-16T06:02:11;6.60;;;2.60;;
74170;SDS011;62526;50.948;6.590;2024-02-16T06:04:38;7.57;;;2.45;;
74170;SDS011;62526;50.948;6.590;2024-02-16T06:07:05;4.80;;;2.47;;
74170;SDS011;62526;50.948;6.590;2024-02-16T06:09:35;4.07;;;2.45;;
74170;SDS011;62526;50.948;6.590;2024-02-16T06:12:03;4.45;;;2.50;;
74170;SDS011;62526;50.948;6.590;2024-02-16T06:14:31;6.22;;;2.85;;
74170;SDS011;62526;50.948;6.590;2024-02-16T06:16:59;4.80;;;2.67;;
74170;SDS011;62526;50.948;6.590;2024-02-16T06:19:26;7.90;;;2.65;;
74170;SDS011;62526;50.948;6.590;2024-02-16T06:21:53;4.53;;;2.30;;
74170;SDS011;62526;50.948;6.590;2024-02-16T06:24:22;3.08;;;2.35;;
74170;SDS011;62526;50.948;6.590;2024-02-16T06:26:49;4.65;;;2.50;;
74170;SDS011;62526;50.948;6.590;2024-02-16T06:29:16;3.20;;;2.50;;
74170;SDS011;62526;50.948;6.590;2024-02-16T06:31:46;4.78;;;2.33;;
74170;SDS011;62526;50.948;6.590;2024-02-16T06:34:12;6.85;;;2.40;;
74170;SDS011;62526;50.948;6.590;2024-02-16T06:36:40;3.33;;;2.37;;
74170;SDS011;62526;50.948;6.590;2024-02-16T06:39:06;10.75;;;2.87;;
74170;SDS011;62526;50.948;6.590;2024-02-16T06:41:34;2.85;;;2.28;;
74170;SDS011;62526;50.948;6.590;2024-02-16T06:44:00;4.68;;;2.33;;
74170;SDS011;62526;50.948;6.590;2024-02-16T06:46:27;4.68;;;2.47;;
74170;SDS011;62526;50.948;6.590;2024-02-16T06:48:55;6.93;;;2.80;;
74170;SDS011;62526;50.948;6.590;2024-02-16T06:51:23;11.23;;;2.95;;
74170;SDS011;62526;50.948;6.590;2024-02-16T06:53:49;6.78;;;2.55;;
74170;SDS011;62526;50.948;6.590;2024-02-16T06:56:16;5.57;;;2.78;;
74170;SDS011;62526;50.948;6.590;2024-02-16T06:58:43;8.57;;;3.65;;
74170;SDS011;62526;50.948;6.590;2024-02-16T07:01:10;3.60;;;2.30;;
74170;SDS011;62526;50.948;6.590;2024-02-16T07:03:37;5.03;;;2.60;;
74170;SDS011;62526;50.948;6.590;2024-02-16T07:06:04;4.72;;;2.42;;
74170;SDS011;62526;50.948;6.590;2024-02-16T07:08:33;5.62;;;2.67;;
74170;SDS011;62526;50.948;6.590;2024-02-16T07:11:00;5.82;;;3.03;;
74170;SDS011;62526;50.948;6.590;2024-02-16T07:13:26;4.97;;;2.72;;
74170;SDS011;62526;50.948;6.590;2024-02-16T07:15:53;4.20;;;2.65;;
74170;SDS011;62526;50.948;6.590;2024-02-16T07:18:20;5.50;;;2.75;;
74170;SDS011;62526;50.948;6.590;2024-02-16T07:20:47;6.68;;;2.72;;
74170;SDS011;62526;50.948;6.590;2024-02-16T07:23:13;6.85;;;2.50;;
74170;SDS011;62526;50.948;6.590;2024-02-16T07:25:41;5.85;;;2.33;;
74170;SDS011;62526;50.948;6.590;2024-02-16T07:28:08;3.00;;;2.70;;
74170;SDS011;62526;50.948;6.590;2024-02-16T07:30:36;2.83;;;2.30;;
74170;SDS011;62526;50.948;6.590;2024-02-16T07:33:05;5.90;;;2.58;;
74170;SDS011;62526;50.948;6.590;2024-02-16T07:35:31;7.15;;;2.22;;
74170;SDS011;62526;50.948;6.590;2024-02-16T07:37:58;6.18;;;2.42;;
74170;SDS011;62526;50.948;6.590;2024-02-16T07:40:25;4.28;;;2.58;;
74170;SDS011;62526;50.948;6.590;2024-02-16T07:42:52;7.12;;;2.95;;
74170;SDS011;62526;50.948;6.590;2024-02-16T07:45:19;6.30;;;3.05;;
74170;SDS011;62526;50.948;6.590;2024-02-16T07:47:47;4.50;;;2.53;;
74170;SDS011;62526;50.948;6.590;2024-02-16T07:50:17;4.75;;;2.90;;
74170;SDS011;62526;50.948;6.590;2024-02-16T07:52:41;4.68;;;2.55;;
74170;SDS011;62526;50.948;6.590;2024-02-16T07:55:08;3.53;;;2.65;;
74170;SDS011;62526;50.948;6.590;2024-02-16T07:57:35;10.10;;;2.78;;
74170;SDS011;62526;50.948;6.590;2024-02-16T08:00:02;3.40;;;2.40;;
74170;SDS011;62526;50.948;6.590;2024-02-16T08:02:29;4.80;;;2.62;;
74170;SDS011;62526;50.948;6.590;2024-02-16T08:04:56;6.97;;;2.90;;
74170;SDS011;62526;50.948;6.590;2024-02-16T08:07:23;6.90;;;2.60;;
74170;SDS011;62526;50.948;6.590;2024-02-16T08:09:50;6.53;;;2.92;;
74170;SDS011;62526;50.948;6.590;2024-02-16T08:12:17;5.03;;;2.65;;
74170;SDS011;62526;50.948;6.590;2024-02-16T08:14:47;3.70;;;2.75;;
74170;SDS011;62526;50.948;6.590;2024-02-16T08:17:26;7.95;;;2.83;;
74170;SDS011;62526;50.948;6.590;2024-02-16T08:19:54;12.30;;;3.35;;
74170;SDS011;62526;50.948;6.590;2024-02-16T08:22:21;4.57;;;2.90;;
74170;SDS011;62526;50.948;6.590;2024-02-16T08:24:48;4.72;;;2.58;;
74170;SDS011;62526;50.948;6.590;2024-02-16T08:27:15;6.37;;;2.20;;
74170;SDS011;62526;50.948;6.590;2024-02-16T08:29:42;7.70;;;3.37;;
74170;SDS011;62526;50.948;6.590;2024-02-16T08:32:09;6.72;;;3.35;;
74170;SDS011;62526;50.948;6.590;2024-02-16T08:34:36;10.35;;;2.97;;
74170;SDS011;62526;50.948;6.590;2024-02-16T08:37:05;5.97;;;2.92;;
74170;SDS011;62526;50.948;6.590;2024-02-16T08:39:33;5.90;;;3.05;;
74170;SDS011;62526;50.948;6.590;2024-02-16T08:41:59;6.90;;;3.22;;
74170;SDS011;62526;50.948;6.590;2024-02-16T08:44:26;4.47;;;2.47;;
74170;SDS011;62526;50.948;6.590;2024-02-16T08:46:54;5.32;;;2.53;;
74170;SDS011;62526;50.948;6.590;2024-02-16T08:49:21;4.53;;;3.05;;
74170;SDS011;62526;50.948;6.590;2024-02-16T08:51:48;5.75;;;2.85;;
74170;SDS011;62526;50.948;6.590;2024-02-16T08:54:16;4.12;;;2.60;;
74170;SDS011;62526;50.948;6.590;2024-02-16T08:56:43;3.92;;;2.55;;
74170;SDS011;62526;50.948;6.590;2024-02-16T08:59:10;4.50;;;2.83;;
74170;SDS011;62526;50.948;6.590;2024-02-16T09:01:38;4.93;;;2.67;;
74170;SDS011;62526;50.948;6.590;2024-02-16T09:04:05;8.27;;;2.83;;
74170;SDS011;62526;50.948;6.590;2024-02-16T09:06:31;7.80;;;3.35;;
74170;SDS011;62526;50.948;6.590;2024-02-16T09:08:59;8.90;;;3.20;;
74170;SDS011;62526;50.948;6.590;2024-02-16T09:11:25;4.97;;;2.85;;
74170;SDS011;62526;50.948;6.590;2024-02-16T09:13:53;4.53;;;2.62;;
74170;SDS011;62526;50.948;6.590;2024-02-16T09:16:19;6.28;;;3.12;;
74170;SDS011;62526;50.948;6.590;2024-02-16T09:18:46;5.47;;;2.67;;
74170;SDS011;62526;50.948;6.590;2024-02-16T09:21:14;7.93;;;2.87;;
74170;SDS011;62526;50.948;6.590;2024-02-16T09:23:40;5.32;;;2.55;;
74170;SDS011;62526;50.948;6.590;2024-02-16T09:26:08;5.37;;;2.78;;
74170;SDS011;62526;50.948;6.590;2024-02-16T09:28:39;4.60;;;2.30;;
74170;SDS011;62526;50.948;6.590;2024-02-16T09:31:08;8.52;;;3.20;;
74170;SDS011;62526;50.948;6.590;2024-02-16T09:33:36;6.93;;;2.58;;
74170;SDS011;62526;50.948;6.590;2024-02-16T09:36:02;7.87;;;2.70;;
74170;SDS011;62526;50.948;6.590;2024-02-16T09:38:30;10.93;;;2.75;;
74170;SDS011;62526;50.948;6.590;2024-02-16T09:40:57;5.15;;;2.40;;
74170;SDS011;62526;50.948;6.590;2024-02-16T09:43:27;7.65;;;2.50;;
74170;SDS011;62526;50.948;6.590;2024-02-16T09:45:54;8.25;;;2.97;;
74170;SDS011;62526;50.948;6.590;2024-02-16T09:48:23;6.57;;;3.10;;
74170;SDS011;62526;50.948;6.590;2024-02-16T09:50:53;7.32;;;2.65;;
74170;SDS011;62526;50.948;6.590;2024-02-16T09:53:24;6.05;;;2.55;;
74170;SDS011;62526;50.948;6.590;2024-02-16T09:55:52;7.32;;;2.97;;
74170;SDS011;62526;50.948;6.590;2024-02-16T09:58:20;6.40;;;2.50;;
74170;SDS011;62526;50.948;6.590;2024-02-16T10:00:48;7.93;;;2.42;;
74170;SDS011;62526;50.948;6.590;2024-02-16T10:05:49;7.20;;;2.72;;
74170;SDS011;62526;50.948;6.590;2024-02-16T10:08:16;14.55;;;3.08;;
74170;SDS011;62526;50.948;6.590;2024-02-16T10:10:43;7.97;;;2.65;;
74170;SDS011;62526;50.948;6.590;2024-02-16T10:13:10;7.03;;;2.70;;
74170;SDS011;62526;50.948;6.590;2024-02-16T10:15:38;9.10;;;2.60;;
74170;SDS011;62526;50.948;6.590;2024-02-16T10:18:05;11.93;;;2.87;;
74170;SDS011;62526;50.948;6.590;2024-02-16T10:20:33;10.98;;;2.97;;
74170;SDS011;62526;50.948;6.590;2024-02-16T10:23:05;8.70;;;3.42;;
74170;SDS011;62526;50.948;6.590;2024-02-16T10:25:34;9.13;;;3.03;;
74170;SDS011;62526;50.948;6.590;2024-02-16T10:28:04;7.10;;;3.33;;
74170;SDS011;62526;50.948;6.590;2024-02-16T10:30:33;12.77;;;6.97;;
74170;SDS011;62526;50.948;6.590;2024-02-16T10:32:59;9.55;;;3.42;;
74170;SDS011;62526;50.948;6.590;2024-02-16T10:35:26;6.95;;;3.20;;
74170;SDS011;62526;50.948;6.590;2024-02-16T10:37:54;9.82;;;4.80;;
74170;SDS011;62526;50.948;6.590;2024-02-16T10:40:22;15.40;;;6.18;;
74170;SDS011;62526;50.948;6.590;2024-02-16T10:42:50;11.65;;;4.32;;
74170;SDS011;62526;50.948;6.590;2024-02-16T10:45:17;9.23;;;3.87;;
74170;SDS011;62526;50.948;6.590;2024-02-16T10:47:44;10.45;;;5.00;;
74170;SDS011;62526;50.948;6.590;2024-02-16T10:50:11;7.82;;;3.83;;
74170;SDS011;62526;50.948;6.590;2024-02-16T10:52:39;8.55;;;2.60;;
74170;SDS011;62526;50.948;6.590;2024-02-16T10:55:06;14.23;;;3.53;;
74170;SDS011;62526;50.948;6.590;2024-02-16T10:57:36;9.10;;;4.43;;
74170;SDS011;62526;50.948;6.590;2024-02-16T11:00:07;10.48;;;3.17;;
74170;SDS011;62526;50.948;6.590;2024-02-16T11:02:50;7.70;;;3.00;;
74170;SDS011;62526;50.948;6.590;2024-02-16T11:05:07;7.18;;;2.37;;
74170;SDS011;62526;50.948;6.590;2024-02-16T11:07:34;7.12;;;3.35;;
74170;SDS011;62526;50.948;6.590;2024-02-16T11:10:01;6.35;;;3.03;;
74170;SDS011;62526;50.948;6.590;2024-02-16T11:12:32;12.93;;;3.03;;
74170;SDS011;62526;50.948;6.590;2024-02-16T11:14:56;12.88;;;3.22;;
74170;SDS011;62526;50.948;6.590;2024-02-16T11:17:22;7.28;;;3.37;;
74170;SDS011;62526;50.948;6.590;2024-02-16T11:19:50;8.57;;;3.65;;
74170;SDS011;62526;50.948;6.590;2024-02-16T11:22:17;11.52;;;3.40;;
74170;SDS011;62526;50.948;6.590;2024-02-16T11:24:44;8.30;;;3.62;;
74170;SDS011;62526;50.948;6.590;2024-02-16T11:27:11;11.60;;;3.30;;
74170;SDS011;62526;50.948;6.590;2024-02-16T11:29:38;10.23;;;3.10;;
74170;SDS011;62526;50.948;6.590;2024-02-16T11:32:05;9.75;;;3.65;;
74170;SDS011;62526;50.948;6.590;2024-02-16T11:34:33;9.00;;;3.35;;
74170;SDS011;62526;50.948;6.590;2024-02-16T11:37:01;5.68;;;3.10;;
74170;SDS011;62526;50.948;6.590;2024-02-16T11:39:28;9.80;;;3.10;;
74170;SDS011;62526;50.948;6.590;2024-02-16T11:41:58;3.55;;;2.22;;
74170;SDS011;62526;50.948;6.590;2024-02-16T11:44:25;4.45;;;2.60;;
74170;SDS011;62526;50.948;6.590;2024-02-16T11:46:53;8.25;;;3.03;;
74170;SDS011;62526;50.948;6.590;2024-02-16T11:49:19;8.18;;;3.10;;
74170;SDS011;62526;50.948;6.590;2024-02-16T11:51:47;8.38;;;2.95;;
74170;SDS011;62526;50.948;6.590;2024-02-16T11:54:14;6.37;;;2.85;;
74170;SDS011;62526;50.948;6.590;2024-02-16T11:56:40;5.20;;;2.90;;
74170;SDS011;62526;50.948;6.590;2024-02-16T11:59:13;5.53;;;2.60;;
74170;SDS011;62526;50.948;6.590;2024-02-16T12:02:16;8.07;;;2.92;;
74170;SDS011;62526;50.948;6.590;2024-02-16T12:04:24;9.30;;;2.97;;
74170;SDS011;62526;50.948;6.590;2024-02-16T12:06:56;5.90;;;2.65;;
74170;SDS011;62526;50.948;6.590;2024-02-16T12:09:23;7.68;;;3.30;;
74170;SDS011;62526;50.948;6.590;2024-02-16T12:11:49;6.78;;;3.55;;
74170;SDS011;62526;50.948;6.590;2024-02-16T12:14:17;7.03;;;3.05;;
74170;SDS011;62526;50.948;6.590;2024-02-16T12:16:49;5.85;;;2.85;;
74170;SDS011;62526;50.948;6.590;2024-02-16T12:19:17;7.62;;;3.12;;
74170;SDS011;62526;50.948;6.590;2024-02-16T12:21:43;7.05;;;3.10;;
74170;SDS011;62526;50.948;6.590;2024-02-16T12:24:10;7.12;;;3.35;;
74170;SDS011;62526;50.948;6.590;2024-02-16T12:26:37;6.10;;;3.35;;
74170;SDS011;62526;50.948;6.590;2024-02-16T12:29:03;5.47;;;3.45;;
74170;SDS011;62526;50.948;6.590;2024-02-16T12:31:31;15.07;;;3.50;;
74170;SDS011;62526;50.948;6.590;2024-02-16T12:33:58;6.62;;;3.30;;
74170;SDS011;62526;50.948;6.590;2024-02-16T12:36:26;3.80;;;2.33;;
74170;SDS011;62526;50.948;6.590;2024-02-16T12:38:53;4.70;;;3.50;;
74170;SDS011;62526;50.948;6.590;2024-02-16T12:41:20;6.28;;;3.33;;
74170;SDS011;62526;50.948;6.590;2024-02-16T12:43:47;6.12;;;3.03;;
74170;SDS011;62526;50.948;6.590;2024-02-16T12:46:13;10.82;;;2.78;;
74170;SDS011;62526;50.948;6.590;2024-02-16T12:48:40;9.18;;;3.40;;
74170;SDS011;62526;50.948;6.590;2024-02-16T12:51:07;6.25;;;3.12;;
74170;SDS011;62526;50.948;6.590;2024-02-16T12:53:34;7.18;;;3.58;;
74170;SDS011;62526;50.948;6.590;2024-02-16T12:56:01;9.95;;;3.85;;
74170;SDS011;62526;50.948;6.590;2024-02-16T12:58:28;5.97;;;3.35;;
74170;SDS011;62526;50.948;6.590;2024-02-16T13:00:55;9.38;;;3.40;;
74170;SDS011;62526;50.948;6.590;2024-02-16T13:03:22;6.40;;;3.30;;
74170;SDS011;62526;50.948;6.590;2024-02-16T13:05:49;8.73;;;3.67;;
74170;SDS011;62526;50.948;6.590;2024-02-16T13:08:16;5.00;;;3.10;;
74170;SDS011;62526;50.948;6.590;2024-02-16T13:10:43;10.07;;;3.42;;
74170;SDS011;62526;50.948;6.590;2024-02-16T13:13:10;7.37;;;3.62;;
74170;SDS011;62526;50.948;6.590;2024-02-16T13:15:37;6.53;;;3.58;;
74170;SDS011;62526;50.948;6.590;2024-02-16T13:18:05;9.35;;;4.12;;
74170;SDS011;62526;50.948;6.590;2024-02-16T13:20:31;7.82;;;3.92;;
74170;SDS011;62526;50.948;6.590;2024-02-16T13:22:59;6.35;;;3.22;;
74170;SDS011;62526;50.948;6.590;2024-02-16T13:25:26;12.07;;;3.65;;
74170;SDS011;62526;50.948;6.590;2024-02-16T13:27:53;9.00;;;3.40;;
74170;SDS011;62526;50.948;6.590;2024-02-16T13:30:20;5.65;;;3.55;;
74170;SDS011;62526;50.948;6.590;2024-02-16T13:32:47;6.65;;;3.65;;
74170;SDS011;62526;50.948;6.590;2024-02-16T13:35:15;5.15;;;3.05;;
74170;SDS011;62526;50.948;6.590;2024-02-16T13:37:41;4.32;;;3.00;;
74170;SDS011;62526;50.948;6.590;2024-02-16T13:40:08;2.90;;;2.60;;
74170;SDS011;62526;50.948;6.590;2024-02-16T13:42:36;7.82;;;4.25;;
74170;SDS011;62526;50.948;6.590;2024-02-16T13:45:02;5.90;;;3.95;;
74170;SDS011;62526;50.948;6.590;2024-02-16T13:47:30;6.10;;;4.00;;
74170;SDS011;62526;50.948;6.590;2024-02-16T13:49:57;5.15;;;3.08;;
74170;SDS011;62526;50.948;6.590;2024-02-16T13:52:25;9.02;;;4.20;;
74170;SDS011;62526;50.948;6.590;2024-02-16T13:54:52;10.63;;;4.75;;
74170;SDS011;62526;50.948;6.590;2024-02-16T13:57:19;9.68;;;4.47;;
74170;SDS011;62526;50.948;6.590;2024-02-16T13:59:46;9.00;;;4.22;;
74170;SDS011;62526;50.948;6.590;2024-02-16T14:02:13;15.63;;;4.60;;
74170;SDS011;62526;50.948;6.590;2024-02-16T14:04:40;4.82;;;2.65;;
74170;SDS011;62526;50.948;6.590;2024-02-16T14:07:07;8.45;;;4.32;;
74170;SDS011;62526;50.948;6.590;2024-02-16T14:09:33;12.98;;;4.50;;
74170;SDS011;62526;50.948;6.590;2024-02-16T14:12:00;8.32;;;4.30;;
74170;SDS011;62526;50.948;6.590;2024-02-16T14:14:28;4.90;;;3.42;;
74170;SDS011;62526;50.948;6.590;2024-02-16T14:16:54;5.35;;;3.50;;
74170;SDS011;62526;50.948;6.590;2024-02-16T14:19:22;10.48;;;4.15;;
74170;SDS011;62526;50.948;6.590;2024-02-16T14:21:48;8.52;;;4.30;;
74170;SDS011;62526;50.948;6.590;2024-02-16T14:24:15;9.40;;;4.50;;
74170;SDS011;62526;50.948;6.590;2024-02-16T14:26:43;8.65;;;4.87;;
74170;SDS011;62526;50.948;6.590;2024-02-16T14:29:09;6.47;;;4.60;;
74170;SDS011;62526;50.948;6.590;2024-02-16T14:31:37;10.48;;;5.20;;
74170;SDS011;62526;50.948;6.590;2024-02-16T14:34:04;7.72;;;5.32;;
74170;SDS011;62526;50.948;6.590;2024-02-16T14:36:32;7.80;;;5.15;;
74170;SDS011;62526;50.948;6.590;2024-02-16T14:38:58;10.60;;;5.25;;
74170;SDS011;62526;50.948;6.590;2024-02-16T14:41:26;7.68;;;5.18;;
74170;SDS011;62526;50.948;6.590;2024-02-16T14:43:53;8.48;;;4.80;;
74170;SDS011;62526;50.948;6.590;2024-02-16T14:46:24;7.82;;;5.22;;
74170;SDS011;62526;50.948;6.590;2024-02-16T14:48:47;11.70;;;5.00;;